sensor_id;sensor_type;location;lat;lon;timestamp;P1;durP1;ratioP1;P2;durP2;ratioP2
25667;SDS011;18003;-33.830;151.202;2023-08-31T00:00:46;7.20;;;3.85;;
25667;SDS011;18003;-33.830;151.202;2023-08-31T00:03:12;8.73;;;4.03;;
25667;SDS011;18003;-33.830;151.202;2023-08-31T00:05:46;8.08;;;4.03;;
25667;SDS011;18003;-33.830;151.202;2023-08-31T00:08:14;8.20;;;3.67;;
25667;SDS011;18003;-33.830;151.202;2023-08-31T00:10:44;8.15;;;3.70;;
25667;SDS011;18003;-33.830;151.202;2023-08-31T00:13:16;7.45;;;3.52;;
25667;SDS011;18003;-33.830;151.202;2023-08-31T00:15:46;8.83;;;3.80;;
25667;SDS011;18003;-33.830;151.202;2023-08-31T00:18:21;8.48;;;4.40;;
25667;SDS011;18003;-33.830;151.202;2023-08-31T00:20:47;5.95;;;3.62;;
25667;SDS011;18003;-33.830;151.202;2023-08-31T00:23:17;8.25;;;4.12;;
25667;SDS011;18003;-33.830;151.202;2023-08-31T00:25:47;7.70;;;3.95;;
25667;SDS011;18003;-33.830;151.202;2023-08-31T00:28:19;8.43;;;4.17;;
25667;SDS011;18003;-33.830;151.202;2023-08-31T00:30:49;8.43;;;4.35;;
25667;SDS011;18003;-33.830;151.202;2023-08-31T00:33:19;7.67;;;4.10;;
25667;SDS011;18003;-33.830;151.202;2023-08-31T00:35:49;7.12;;;4.10;;
25667;SDS011;18003;-33.830;151.202;2023-08-31T00:38:19;8.28;;;3.75;;
25667;SDS011;18003;-33.830;151.202;2023-08-31T00:40:49;9.10;;;4.08;;
25667;SDS011;18003;-33.830;151.202;2023-08-31T00:43:20;6.17;;;3.20;;
25667;SDS011;18003;-33.830;151.202;2023-08-31T00:45:50;6.95;;;3.25;;
25667;SDS011;18003;-33.830;151.202;2023-08-31T00:48:23;5.05;;;3.10;;
25667;SDS011;18003;-33.830;151.202;2023-08-31T00:50:56;7.90;;;3.43;;
25667;SDS011;18003;-33.830;151.202;2023-08-31T00:53:24;7.83;;;3.30;;
25667;SDS011;18003;-33.830;151.202;2023-08-31T00:55:54;8.83;;;3.30;;
25667;SDS011;18003;-33.830;151.202;2023-08-31T00:58:24;7.62;;;3.40;;
25667;SDS011;18003;-33.830;151.202;2023-08-31T01:01:07;6.12;;;3.35;;
25667;SDS011;18003;-33.830;151.202;2023-08-31T01:07:04;8.05;;;3.77;;
25667;SDS011;18003;-33.830;151.202;2023-08-31T01:12:29;15.00;;;3.50;;
25667;SDS011;18003;-33.830;151.202;2023-08-31T01:15:10;9.13;;;3.67;;
25667;SDS011;18003;-33.830;151.202;2023-08-31T01:17:44;6.87;;;3.42;;
25667;SDS011;18003;-33.830;151.202;2023-08-31T01:23:02;6.55;;;3.37;;
25667;SDS011;18003;-33.830;151.202;2023-08-31T01:25:34;8.20;;;4.22;;
25667;SDS011;18003;-33.830;151.202;2023-08-31T01:28:04;8.83;;;3.40;;
25667;SDS011;18003;-33.830;151.202;2023-08-31T01:30:35;9.50;;;4.30;;
25667;SDS011;18003;-33.830;151.202;2023-08-31T01:33:05;9.77;;;3.80;;
25667;SDS011;18003;-33.830;151.202;2023-08-31T01:35:40;7.80;;;3.50;;
25667;SDS011;18003;-33.830;151.202;2023-08-31T01:38:10;6.12;;;3.72;;
25667;SDS011;18003;-33.830;151.202;2023-08-31T01:43:26;7.47;;;3.87;;
25667;SDS011;18003;-33.830;151.202;2023-08-31T01:45:58;5.60;;;3.42;;
25667;SDS011;18003;-33.830;151.202;2023-08-31T01:48:28;8.00;;;3.08;;
25667;SDS011;18003;-33.830;151.202;2023-08-31T01:50:59;8.03;;;3.87;;
25667;SDS011;18003;-33.830;151.202;2023-08-31T01:53:29;5.62;;;3.33;;
25667;SDS011;18003;-33.830;151.202;2023-08-31T01:55:59;9.43;;;3.60;;
25667;SDS011;18003;-33.830;151.202;2023-08-31T01:58:29;5.85;;;3.77;;
25667;SDS011;18003;-33.830;151.202;2023-08-31T02:00:59;9.13;;;3.20;;
25667;SDS011;18003;-33.830;151.202;2023-08-31T02:03:29;8.13;;;3.58;;
25667;SDS011;18003;-33.830;151.202;2023-08-31T02:05:59;5.25;;;3.45;;
25667;SDS011;18003;-33.830;151.202;2023-08-31T02:08:30;14.45;;;4.00;;
25667;SDS011;18003;-33.830;151.202;2023-08-31T02:11:00;7.42;;;3.50;;
25667;SDS011;18003;-33.830;151.202;2023-08-31T02:13:30;8.63;;;3.70;;
25667;SDS011;18003;-33.830;151.202;2023-08-31T02:16:00;10.05;;;3.58;;
25667;SDS011;18003;-33.830;151.202;2023-08-31T02:18:31;9.95;;;3.60;;
25667;SDS011;18003;-33.830;151.202;2023-08-31T02:21:01;10.08;;;4.08;;
25667;SDS011;18003;-33.830;151.202;2023-08-31T02:23:33;9.00;;;4.00;;
25667;SDS011;18003;-33.830;151.202;2023-08-31T02:26:03;8.70;;;3.67;;
25667;SDS011;18003;-33.830;151.202;2023-08-31T02:28:37;10.40;;;3.98;;
25667;SDS011;18003;-33.830;151.202;2023-08-31T02:31:03;7.27;;;3.57;;
25667;SDS011;18003;-33.830;151.202;2023-08-31T02:33:34;6.53;;;4.03;;
25667;SDS011;18003;-33.830;151.202;2023-08-31T02:36:04;11.40;;;3.65;;
25667;SDS011;18003;-33.830;151.202;2023-08-31T02:38:34;8.75;;;3.80;;
25667;SDS011;18003;-33.830;151.202;2023-08-31T02:41:04;5.70;;;3.53;;
25667;SDS011;18003;-33.830;151.202;2023-08-31T02:43:34;7.37;;;3.50;;
25667;SDS011;18003;-33.830;151.202;2023-08-31T02:46:05;7.87;;;4.07;;
25667;SDS011;18003;-33.830;151.202;2023-08-31T02:48:36;9.55;;;3.95;;
25667;SDS011;18003;-33.830;151.202;2023-08-31T02:51:07;6.92;;;4.10;;
25667;SDS011;18003;-33.830;151.202;2023-08-31T02:53:38;10.23;;;4.53;;
25667;SDS011;18003;-33.830;151.202;2023-08-31T02:56:08;24.82;;;4.92;;
25667;SDS011;18003;-33.830;151.202;2023-08-31T02:58:38;9.33;;;4.23;;
25667;SDS011;18003;-33.830;151.202;2023-08-31T03:01:09;10.55;;;4.25;;
25667;SDS011;18003;-33.830;151.202;2023-08-31T03:06:11;8.93;;;3.42;;
25667;SDS011;18003;-33.830;151.202;2023-08-31T03:08:43;7.58;;;3.60;;
25667;SDS011;18003;-33.830;151.202;2023-08-31T03:11:13;7.50;;;3.75;;
25667;SDS011;18003;-33.830;151.202;2023-08-31T03:13:46;5.27;;;3.00;;
25667;SDS011;18003;-33.830;151.202;2023-08-31T03:16:18;6.70;;;3.37;;
25667;SDS011;18003;-33.830;151.202;2023-08-31T03:18:48;7.37;;;4.00;;
25667;SDS011;18003;-33.830;151.202;2023-08-31T03:21:17;8.38;;;3.70;;
25667;SDS011;18003;-33.830;151.202;2023-08-31T03:23:49;8.88;;;3.50;;
25667;SDS011;18003;-33.830;151.202;2023-08-31T03:26:21;8.70;;;3.87;;
25667;SDS011;18003;-33.830;151.202;2023-08-31T03:28:51;9.20;;;4.30;;
25667;SDS011;18003;-33.830;151.202;2023-08-31T03:31:24;8.48;;;3.60;;
25667;SDS011;18003;-33.830;151.202;2023-08-31T03:33:54;7.83;;;3.30;;
25667;SDS011;18003;-33.830;151.202;2023-08-31T03:36:24;9.00;;;3.70;;
25667;SDS011;18003;-33.830;151.202;2023-08-31T03:38:54;8.20;;;3.27;;
25667;SDS011;18003;-33.830;151.202;2023-08-31T03:41:24;9.05;;;3.87;;
25667;SDS011;18003;-33.830;151.202;2023-08-31T03:43:54;7.55;;;3.67;;
25667;SDS011;18003;-33.830;151.202;2023-08-31T03:46:24;6.60;;;3.05;;
25667;SDS011;18003;-33.830;151.202;2023-08-31T03:49:00;7.22;;;4.05;;
25667;SDS011;18003;-33.830;151.202;2023-08-31T03:51:26;7.67;;;3.77;;
25667;SDS011;18003;-33.830;151.202;2023-08-31T03:53:56;8.15;;;4.10;;
25667;SDS011;18003;-33.830;151.202;2023-08-31T03:56:26;7.35;;;3.55;;
25667;SDS011;18003;-33.830;151.202;2023-08-31T03:58:56;6.12;;;3.87;;
25667;SDS011;18003;-33.830;151.202;2023-08-31T04:01:26;11.97;;;4.20;;
25667;SDS011;18003;-33.830;151.202;2023-08-31T04:03:56;6.85;;;3.80;;
25667;SDS011;18003;-33.830;151.202;2023-08-31T04:08:58;7.97;;;3.55;;
25667;SDS011;18003;-33.830;151.202;2023-08-31T04:11:29;7.30;;;3.30;;
25667;SDS011;18003;-33.830;151.202;2023-08-31T04:14:01;6.78;;;3.30;;
25667;SDS011;18003;-33.830;151.202;2023-08-31T04:16:31;7.65;;;3.98;;
25667;SDS011;18003;-33.830;151.202;2023-08-31T04:19:01;9.05;;;4.08;;
25667;SDS011;18003;-33.830;151.202;2023-08-31T04:21:33;8.35;;;3.62;;
25667;SDS011;18003;-33.830;151.202;2023-08-31T04:24:04;5.87;;;3.92;;
25667;SDS011;18003;-33.830;151.202;2023-08-31T04:26:34;10.45;;;4.35;;
25667;SDS011;18003;-33.830;151.202;2023-08-31T04:29:04;8.35;;;3.60;;
25667;SDS011;18003;-33.830;151.202;2023-08-31T04:31:35;6.62;;;3.90;;
25667;SDS011;18003;-33.830;151.202;2023-08-31T04:34:05;8.38;;;3.60;;
25667;SDS011;18003;-33.830;151.202;2023-08-31T04:36:35;9.90;;;4.00;;
25667;SDS011;18003;-33.830;151.202;2023-08-31T04:39:06;7.78;;;3.98;;
25667;SDS011;18003;-33.830;151.202;2023-08-31T04:41:36;8.65;;;3.70;;
25667;SDS011;18003;-33.830;151.202;2023-08-31T04:44:06;8.48;;;3.80;;
25667;SDS011;18003;-33.830;151.202;2023-08-31T04:46:38;10.20;;;4.00;;
25667;SDS011;18003;-33.830;151.202;2023-08-31T04:49:08;10.05;;;4.10;;
25667;SDS011;18003;-33.830;151.202;2023-08-31T04:51:38;5.62;;;3.27;;
25667;SDS011;18003;-33.830;151.202;2023-08-31T04:54:09;7.80;;;3.55;;
25667;SDS011;18003;-33.830;151.202;2023-08-31T04:56:39;7.60;;;3.00;;
25667;SDS011;18003;-33.830;151.202;2023-08-31T04:59:09;7.72;;;3.50;;
25667;SDS011;18003;-33.830;151.202;2023-08-31T05:01:39;9.53;;;3.70;;
25667;SDS011;18003;-33.830;151.202;2023-08-31T05:04:10;8.63;;;3.60;;
25667;SDS011;18003;-33.830;151.202;2023-08-31T05:06:40;10.15;;;3.85;;
25667;SDS011;18003;-33.830;151.202;2023-08-31T05:09:10;12.10;;;4.20;;
25667;SDS011;18003;-33.830;151.202;2023-08-31T05:11:40;8.05;;;3.60;;
25667;SDS011;18003;-33.830;151.202;2023-08-31T05:14:11;7.72;;;3.55;;
25667;SDS011;18003;-33.830;151.202;2023-08-31T05:16:41;7.13;;;3.07;;
25667;SDS011;18003;-33.830;151.202;2023-08-31T05:19:12;9.95;;;3.70;;
25667;SDS011;18003;-33.830;151.202;2023-08-31T05:21:42;6.20;;;3.10;;
25667;SDS011;18003;-33.830;151.202;2023-08-31T05:24:12;10.30;;;3.50;;
25667;SDS011;18003;-33.830;151.202;2023-08-31T05:26:42;10.20;;;4.00;;
25667;SDS011;18003;-33.830;151.202;2023-08-31T05:29:12;9.30;;;3.70;;
25667;SDS011;18003;-33.830;151.202;2023-08-31T05:31:43;11.28;;;3.62;;
25667;SDS011;18003;-33.830;151.202;2023-08-31T05:34:16;7.10;;;3.50;;
25667;SDS011;18003;-33.830;151.202;2023-08-31T05:36:48;7.53;;;3.90;;
25667;SDS011;18003;-33.830;151.202;2023-08-31T05:39:21;6.90;;;3.10;;
25667;SDS011;18003;-33.830;151.202;2023-08-31T05:41:52;8.70;;;3.60;;
25667;SDS011;18003;-33.830;151.202;2023-08-31T05:44:22;8.30;;;3.98;;
25667;SDS011;18003;-33.830;151.202;2023-08-31T05:46:52;10.48;;;3.87;;
25667;SDS011;18003;-33.830;151.202;2023-08-31T05:49:22;9.05;;;3.50;;
25667;SDS011;18003;-33.830;151.202;2023-08-31T05:51:52;9.83;;;3.93;;
25667;SDS011;18003;-33.830;151.202;2023-08-31T05:54:22;8.03;;;3.95;;
25667;SDS011;18003;-33.830;151.202;2023-08-31T05:56:54;8.95;;;3.60;;
25667;SDS011;18003;-33.830;151.202;2023-08-31T05:59:24;10.40;;;3.40;;
25667;SDS011;18003;-33.830;151.202;2023-08-31T06:01:54;8.37;;;3.10;;
25667;SDS011;18003;-33.830;151.202;2023-08-31T06:04:24;6.00;;;3.25;;
25667;SDS011;18003;-33.830;151.202;2023-08-31T06:06:55;5.80;;;3.25;;
25667;SDS011;18003;-33.830;151.202;2023-08-31T06:11:53;6.12;;;3.15;;
25667;SDS011;18003;-33.830;151.202;2023-08-31T06:14:24;8.05;;;3.50;;
25667;SDS011;18003;-33.830;151.202;2023-08-31T06:16:54;7.72;;;3.60;;
25667;SDS011;18003;-33.830;151.202;2023-08-31T06:19:24;6.83;;;3.17;;
25667;SDS011;18003;-33.830;151.202;2023-08-31T06:21:55;6.35;;;3.10;;
25667;SDS011;18003;-33.830;151.202;2023-08-31T06:24:25;6.90;;;3.10;;
25667;SDS011;18003;-33.830;151.202;2023-08-31T06:26:55;8.60;;;3.37;;
25667;SDS011;18003;-33.830;151.202;2023-08-31T06:29:25;9.00;;;4.12;;
25667;SDS011;18003;-33.830;151.202;2023-08-31T06:31:56;7.95;;;3.27;;
25667;SDS011;18003;-33.830;151.202;2023-08-31T06:34:26;7.40;;;3.40;;
25667;SDS011;18003;-33.830;151.202;2023-08-31T06:36:57;8.80;;;3.35;;
25667;SDS011;18003;-33.830;151.202;2023-08-31T06:41:56;8.27;;;3.23;;
25667;SDS011;18003;-33.830;151.202;2023-08-31T06:44:26;7.30;;;3.05;;
25667;SDS011;18003;-33.830;151.202;2023-08-31T06:46:56;6.80;;;3.30;;
25667;SDS011;18003;-33.830;151.202;2023-08-31T06:49:27;9.20;;;3.17;;
25667;SDS011;18003;-33.830;151.202;2023-08-31T06:51:59;6.20;;;3.20;;
25667;SDS011;18003;-33.830;151.202;2023-08-31T06:54:31;6.80;;;3.70;;
25667;SDS011;18003;-33.830;151.202;2023-08-31T06:57:02;8.73;;;3.60;;
25667;SDS011;18003;-33.830;151.202;2023-08-31T06:59:32;7.28;;;3.27;;
25667;SDS011;18003;-33.830;151.202;2023-08-31T07:02:02;7.85;;;3.08;;
25667;SDS011;18003;-33.830;151.202;2023-08-31T07:04:32;8.25;;;3.30;;
25667;SDS011;18003;-33.830;151.202;2023-08-31T07:07:03;8.47;;;3.20;;
25667;SDS011;18003;-33.830;151.202;2023-08-31T07:09:34;6.67;;;2.87;;
25667;SDS011;18003;-33.830;151.202;2023-08-31T07:12:04;7.85;;;3.25;;
25667;SDS011;18003;-33.830;151.202;2023-08-31T07:14:35;5.67;;;2.87;;
25667;SDS011;18003;-33.830;151.202;2023-08-31T07:17:05;7.17;;;2.95;;
25667;SDS011;18003;-33.830;151.202;2023-08-31T07:19:37;6.45;;;3.02;;
25667;SDS011;18003;-33.830;151.202;2023-08-31T07:22:08;5.50;;;3.00;;
25667;SDS011;18003;-33.830;151.202;2023-08-31T07:24:39;8.40;;;3.30;;
25667;SDS011;18003;-33.830;151.202;2023-08-31T07:27:09;8.10;;;3.47;;
25667;SDS011;18003;-33.830;151.202;2023-08-31T07:29:40;6.85;;;2.60;;
25667;SDS011;18003;-33.830;151.202;2023-08-31T07:32:10;4.25;;;2.67;;
25667;SDS011;18003;-33.830;151.202;2023-08-31T07:34:40;8.83;;;2.95;;
25667;SDS011;18003;-33.830;151.202;2023-08-31T07:37:10;8.83;;;2.90;;
25667;SDS011;18003;-33.830;151.202;2023-08-31T07:39:45;6.12;;;2.98;;
25667;SDS011;18003;-33.830;151.202;2023-08-31T07:42:14;7.08;;;2.70;;
25667;SDS011;18003;-33.830;151.202;2023-08-31T07:44:44;10.78;;;3.12;;
25667;SDS011;18003;-33.830;151.202;2023-08-31T07:47:14;7.00;;;3.35;;
25667;SDS011;18003;-33.830;151.202;2023-08-31T07:49:44;9.88;;;2.95;;
25667;SDS011;18003;-33.830;151.202;2023-08-31T07:52:15;7.77;;;3.13;;
25667;SDS011;18003;-33.830;151.202;2023-08-31T07:54:46;6.50;;;3.42;;
25667;SDS011;18003;-33.830;151.202;2023-08-31T07:57:16;6.03;;;2.60;;
25667;SDS011;18003;-33.830;151.202;2023-08-31T07:59:46;7.22;;;3.10;;
25667;SDS011;18003;-33.830;151.202;2023-08-31T08:02:16;7.45;;;2.75;;
25667;SDS011;18003;-33.830;151.202;2023-08-31T08:04:46;7.22;;;2.83;;
25667;SDS011;18003;-33.830;151.202;2023-08-31T08:07:17;8.23;;;2.62;;
25667;SDS011;18003;-33.830;151.202;2023-08-31T08:09:47;6.20;;;2.85;;
25667;SDS011;18003;-33.830;151.202;2023-08-31T08:12:17;7.03;;;3.10;;
25667;SDS011;18003;-33.830;151.202;2023-08-31T08:14:47;7.65;;;3.02;;
25667;SDS011;18003;-33.830;151.202;2023-08-31T08:17:19;7.33;;;3.30;;
25667;SDS011;18003;-33.830;151.202;2023-08-31T08:19:49;5.53;;;2.73;;
25667;SDS011;18003;-33.830;151.202;2023-08-31T08:22:19;4.67;;;2.53;;
25667;SDS011;18003;-33.830;151.202;2023-08-31T08:24:49;6.65;;;3.20;;
25667;SDS011;18003;-33.830;151.202;2023-08-31T08:27:19;5.28;;;2.90;;
25667;SDS011;18003;-33.830;151.202;2023-08-31T08:29:49;8.93;;;2.70;;
25667;SDS011;18003;-33.830;151.202;2023-08-31T08:32:19;8.27;;;2.77;;
25667;SDS011;18003;-33.830;151.202;2023-08-31T08:34:49;6.35;;;2.70;;
25667;SDS011;18003;-33.830;151.202;2023-08-31T08:37:19;7.55;;;2.65;;
25667;SDS011;18003;-33.830;151.202;2023-08-31T08:42:28;6.07;;;3.83;;
25667;SDS011;18003;-33.830;151.202;2023-08-31T08:45:01;8.60;;;4.00;;
25667;SDS011;18003;-33.830;151.202;2023-08-31T08:47:33;7.10;;;4.15;;
25667;SDS011;18003;-33.830;151.202;2023-08-31T08:50:04;7.20;;;3.60;;
25667;SDS011;18003;-33.830;151.202;2023-08-31T08:52:34;7.90;;;4.10;;
25667;SDS011;18003;-33.830;151.202;2023-08-31T08:55:05;6.10;;;3.50;;
25667;SDS011;18003;-33.830;151.202;2023-08-31T08:57:36;4.87;;;3.40;;
25667;SDS011;18003;-33.830;151.202;2023-08-31T09:00:06;9.73;;;3.80;;
25667;SDS011;18003;-33.830;151.202;2023-08-31T09:02:37;5.95;;;3.60;;
25667;SDS011;18003;-33.830;151.202;2023-08-31T09:05:07;8.45;;;4.12;;
25667;SDS011;18003;-33.830;151.202;2023-08-31T09:07:37;4.53;;;3.72;;
25667;SDS011;18003;-33.830;151.202;2023-08-31T09:10:11;9.50;;;3.97;;
25667;SDS011;18003;-33.830;151.202;2023-08-31T09:12:42;5.12;;;3.50;;
25667;SDS011;18003;-33.830;151.202;2023-08-31T09:15:12;5.85;;;3.80;;
25667;SDS011;18003;-33.830;151.202;2023-08-31T09:17:42;6.25;;;3.50;;
25667;SDS011;18003;-33.830;151.202;2023-08-31T09:20:12;6.20;;;4.40;;
25667;SDS011;18003;-33.830;151.202;2023-08-31T09:22:42;8.93;;;3.85;;
25667;SDS011;18003;-33.830;151.202;2023-08-31T09:25:12;5.28;;;3.60;;
25667;SDS011;18003;-33.830;151.202;2023-08-31T09:27:42;6.05;;;4.25;;
25667;SDS011;18003;-33.830;151.202;2023-08-31T09:30:12;8.35;;;4.00;;
25667;SDS011;18003;-33.830;151.202;2023-08-31T09:32:42;9.20;;;3.80;;
25667;SDS011;18003;-33.830;151.202;2023-08-31T09:35:13;5.45;;;3.55;;
25667;SDS011;18003;-33.830;151.202;2023-08-31T09:37:45;6.55;;;4.00;;
25667;SDS011;18003;-33.830;151.202;2023-08-31T09:40:15;4.42;;;3.58;;
25667;SDS011;18003;-33.830;151.202;2023-08-31T09:42:45;6.08;;;3.83;;
25667;SDS011;18003;-33.830;151.202;2023-08-31T09:47:46;7.37;;;4.60;;
25667;SDS011;18003;-33.830;151.202;2023-08-31T09:50:16;8.35;;;3.90;;
25667;SDS011;18003;-33.830;151.202;2023-08-31T09:52:47;9.90;;;4.93;;
25667;SDS011;18003;-33.830;151.202;2023-08-31T09:55:18;7.95;;;4.15;;
25667;SDS011;18003;-33.830;151.202;2023-08-31T09:57:51;6.03;;;3.67;;
25667;SDS011;18003;-33.830;151.202;2023-08-31T10:02:51;7.30;;;4.10;;
25667;SDS011;18003;-33.830;151.202;2023-08-31T10:05:23;6.90;;;4.40;;
25667;SDS011;18003;-33.830;151.202;2023-08-31T10:07:53;8.05;;;4.20;;
25667;SDS011;18003;-33.830;151.202;2023-08-31T10:10:23;10.00;;;4.53;;
25667;SDS011;18003;-33.830;151.202;2023-08-31T10:12:54;9.15;;;4.95;;
25667;SDS011;18003;-33.830;151.202;2023-08-31T10:15:25;8.43;;;4.87;;
25667;SDS011;18003;-33.830;151.202;2023-08-31T10:20:26;11.00;;;5.50;;
25667;SDS011;18003;-33.830;151.202;2023-08-31T10:23:07;8.33;;;4.97;;
25667;SDS011;18003;-33.830;151.202;2023-08-31T10:28:26;8.20;;;5.00;;
25667;SDS011;18003;-33.830;151.202;2023-08-31T10:31:07;7.33;;;4.62;;
25667;SDS011;18003;-33.830;151.202;2023-08-31T10:33:41;8.40;;;4.15;;
25667;SDS011;18003;-33.830;151.202;2023-08-31T10:36:15;9.65;;;4.75;;
25667;SDS011;18003;-33.830;151.202;2023-08-31T10:38:46;7.73;;;5.07;;
25667;SDS011;18003;-33.830;151.202;2023-08-31T10:41:36;9.58;;;5.95;;
25667;SDS011;18003;-33.830;151.202;2023-08-31T10:44:02;7.22;;;5.25;;
25667;SDS011;18003;-33.830;151.202;2023-08-31T10:46:33;13.05;;;5.20;;
25667;SDS011;18003;-33.830;151.202;2023-08-31T10:51:54;10.05;;;6.22;;
25667;SDS011;18003;-33.830;151.202;2023-08-31T10:54:20;7.67;;;5.20;;
25667;SDS011;18003;-33.830;151.202;2023-08-31T10:59:41;8.83;;;5.62;;
25667;SDS011;18003;-33.830;151.202;2023-08-31T11:02:33;10.48;;;5.83;;
25667;SDS011;18003;-33.830;151.202;2023-08-31T11:05:17;9.58;;;5.37;;
25667;SDS011;18003;-33.830;151.202;2023-08-31T11:07:48;11.80;;;5.55;;
25667;SDS011;18003;-33.830;151.202;2023-08-31T11:10:20;10.23;;;5.00;;
25667;SDS011;18003;-33.830;151.202;2023-08-31T11:12:58;8.93;;;5.17;;
25667;SDS011;18003;-33.830;151.202;2023-08-31T11:15:24;10.40;;;5.50;;
25667;SDS011;18003;-33.830;151.202;2023-08-31T11:17:56;10.85;;;5.33;;
25667;SDS011;18003;-33.830;151.202;2023-08-31T11:20:26;9.45;;;5.05;;
25667;SDS011;18003;-33.830;151.202;2023-08-31T11:22:57;7.45;;;4.72;;
25667;SDS011;18003;-33.830;151.202;2023-08-31T11:25:34;8.55;;;4.42;;
25667;SDS011;18003;-33.830;151.202;2023-08-31T11:28:00;8.95;;;4.78;;
25667;SDS011;18003;-33.830;151.202;2023-08-31T11:33:03;8.28;;;4.75;;
25667;SDS011;18003;-33.830;151.202;2023-08-31T11:38:23;10.05;;;5.55;;
25667;SDS011;18003;-33.830;151.202;2023-08-31T11:40:55;10.13;;;4.95;;
25667;SDS011;18003;-33.830;151.202;2023-08-31T11:43:25;10.00;;;5.37;;
25667;SDS011;18003;-33.830;151.202;2023-08-31T11:45:55;8.60;;;4.58;;
25667;SDS011;18003;-33.830;151.202;2023-08-31T11:48:26;9.93;;;4.87;;
25667;SDS011;18003;-33.830;151.202;2023-08-31T11:50:56;8.55;;;4.40;;
25667;SDS011;18003;-33.830;151.202;2023-08-31T11:53:27;11.88;;;5.20;;
25667;SDS011;18003;-33.830;151.202;2023-08-31T11:56:01;8.23;;;4.62;;
25667;SDS011;18003;-33.830;151.202;2023-08-31T11:58:30;10.43;;;5.40;;
25667;SDS011;18003;-33.830;151.202;2023-08-31T12:01:00;9.10;;;4.87;;
25667;SDS011;18003;-33.830;151.202;2023-08-31T12:03:41;11.35;;;5.10;;
25667;SDS011;18003;-33.830;151.202;2023-08-31T12:06:03;8.75;;;5.15;;
25667;SDS011;18003;-33.830;151.202;2023-08-31T12:08:33;7.70;;;4.37;;
25667;SDS011;18003;-33.830;151.202;2023-08-31T12:11:13;9.83;;;5.10;;
25667;SDS011;18003;-33.830;151.202;2023-08-31T12:13:42;7.65;;;4.83;;
25667;SDS011;18003;-33.830;151.202;2023-08-31T12:16:12;8.90;;;4.65;;
25667;SDS011;18003;-33.830;151.202;2023-08-31T12:18:44;7.55;;;4.70;;
25667;SDS011;18003;-33.830;151.202;2023-08-31T12:21:14;9.93;;;4.90;;
25667;SDS011;18003;-33.830;151.202;2023-08-31T12:23:45;7.67;;;4.58;;
25667;SDS011;18003;-33.830;151.202;2023-08-31T12:26:15;9.78;;;4.50;;
25667;SDS011;18003;-33.830;151.202;2023-08-31T12:28:45;8.65;;;4.65;;
25667;SDS011;18003;-33.830;151.202;2023-08-31T12:31:15;7.15;;;4.20;;
25667;SDS011;18003;-33.830;151.202;2023-08-31T12:33:45;7.90;;;4.15;;
25667;SDS011;18003;-33.830;151.202;2023-08-31T12:36:15;9.15;;;4.67;;
25667;SDS011;18003;-33.830;151.202;2023-08-31T12:38:45;8.15;;;4.65;;
25667;SDS011;18003;-33.830;151.202;2023-08-31T12:41:15;9.53;;;4.75;;
25667;SDS011;18003;-33.830;151.202;2023-08-31T12:43:46;9.13;;;4.53;;
25667;SDS011;18003;-33.830;151.202;2023-08-31T12:46:16;9.38;;;4.65;;
25667;SDS011;18003;-33.830;151.202;2023-08-31T12:48:46;9.90;;;4.70;;
25667;SDS011;18003;-33.830;151.202;2023-08-31T12:51:16;8.85;;;4.58;;
25667;SDS011;18003;-33.830;151.202;2023-08-31T12:53:46;9.85;;;4.65;;
25667;SDS011;18003;-33.830;151.202;2023-08-31T12:56:16;7.83;;;4.40;;
25667;SDS011;18003;-33.830;151.202;2023-08-31T12:58:49;8.35;;;4.45;;
25667;SDS011;18003;-33.830;151.202;2023-08-31T13:01:20;7.30;;;4.22;;
25667;SDS011;18003;-33.830;151.202;2023-08-31T13:03:53;7.28;;;4.10;;
25667;SDS011;18003;-33.830;151.202;2023-08-31T13:06:23;9.08;;;4.75;;
25667;SDS011;18003;-33.830;151.202;2023-08-31T13:08:53;9.55;;;4.28;;
25667;SDS011;18003;-33.830;151.202;2023-08-31T13:11:23;5.62;;;3.92;;
25667;SDS011;18003;-33.830;151.202;2023-08-31T13:13:53;8.15;;;4.25;;
25667;SDS011;18003;-33.830;151.202;2023-08-31T13:16:23;8.28;;;4.53;;
25667;SDS011;18003;-33.830;151.202;2023-08-31T13:18:54;10.25;;;4.60;;
25667;SDS011;18003;-33.830;151.202;2023-08-31T13:21:25;9.57;;;4.37;;
25667;SDS011;18003;-33.830;151.202;2023-08-31T13:23:55;9.80;;;4.28;;
25667;SDS011;18003;-33.830;151.202;2023-08-31T13:26:26;8.08;;;4.00;;
25667;SDS011;18003;-33.830;151.202;2023-08-31T13:28:57;9.25;;;4.45;;
25667;SDS011;18003;-33.830;151.202;2023-08-31T13:31:27;8.03;;;4.28;;
25667;SDS011;18003;-33.830;151.202;2023-08-31T13:33:57;7.97;;;4.03;;
25667;SDS011;18003;-33.830;151.202;2023-08-31T13:36:27;8.30;;;4.28;;
25667;SDS011;18003;-33.830;151.202;2023-08-31T13:38:57;9.63;;;4.72;;
25667;SDS011;18003;-33.830;151.202;2023-08-31T13:41:27;7.30;;;4.45;;
25667;SDS011;18003;-33.830;151.202;2023-08-31T13:43:57;9.05;;;4.55;;
25667;SDS011;18003;-33.830;151.202;2023-08-31T13:46:26;8.60;;;4.50;;
25667;SDS011;18003;-33.830;151.202;2023-08-31T13:48:57;9.10;;;4.50;;
25667;SDS011;18003;-33.830;151.202;2023-08-31T13:51:28;8.68;;;4.80;;
25667;SDS011;18003;-33.830;151.202;2023-08-31T13:53:58;6.83;;;4.53;;
25667;SDS011;18003;-33.830;151.202;2023-08-31T13:56:30;8.78;;;5.05;;
25667;SDS011;18003;-33.830;151.202;2023-08-31T13:59:00;9.48;;;5.42;;
25667;SDS011;18003;-33.830;151.202;2023-08-31T14:01:30;8.93;;;4.75;;
25667;SDS011;18003;-33.830;151.202;2023-08-31T14:04:01;8.78;;;4.85;;
25667;SDS011;18003;-33.830;151.202;2023-08-31T14:06:31;8.75;;;4.78;;
25667;SDS011;18003;-33.830;151.202;2023-08-31T14:09:01;8.98;;;4.50;;
25667;SDS011;18003;-33.830;151.202;2023-08-31T14:11:31;11.15;;;5.50;;
25667;SDS011;18003;-33.830;151.202;2023-08-31T14:14:03;7.53;;;4.60;;
25667;SDS011;18003;-33.830;151.202;2023-08-31T14:16:34;9.30;;;4.85;;
25667;SDS011;18003;-33.830;151.202;2023-08-31T14:19:05;8.65;;;4.72;;
25667;SDS011;18003;-33.830;151.202;2023-08-31T14:21:42;9.33;;;5.00;;
25667;SDS011;18003;-33.830;151.202;2023-08-31T14:24:12;10.28;;;5.20;;
25667;SDS011;18003;-33.830;151.202;2023-08-31T14:26:43;11.55;;;5.15;;
25667;SDS011;18003;-33.830;151.202;2023-08-31T14:29:13;10.82;;;5.42;;
25667;SDS011;18003;-33.830;151.202;2023-08-31T14:31:44;10.70;;;5.35;;
25667;SDS011;18003;-33.830;151.202;2023-08-31T14:34:14;9.30;;;5.45;;
25667;SDS011;18003;-33.830;151.202;2023-08-31T14:36:44;9.48;;;5.45;;
25667;SDS011;18003;-33.830;151.202;2023-08-31T14:39:14;9.48;;;5.30;;
25667;SDS011;18003;-33.830;151.202;2023-08-31T14:41:44;9.60;;;5.12;;
25667;SDS011;18003;-33.830;151.202;2023-08-31T14:44:14;8.15;;;4.85;;
25667;SDS011;18003;-33.830;151.202;2023-08-31T14:46:44;9.75;;;5.42;;
25667;SDS011;18003;-33.830;151.202;2023-08-31T14:49:14;10.43;;;5.62;;
25667;SDS011;18003;-33.830;151.202;2023-08-31T14:51:44;8.38;;;5.20;;
25667;SDS011;18003;-33.830;151.202;2023-08-31T14:54:14;7.83;;;4.65;;
25667;SDS011;18003;-33.830;151.202;2023-08-31T14:56:44;8.28;;;4.95;;
25667;SDS011;18003;-33.830;151.202;2023-08-31T14:59:14;8.95;;;4.40;;
25667;SDS011;18003;-33.830;151.202;2023-08-31T15:01:44;8.43;;;4.83;;
25667;SDS011;18003;-33.830;151.202;2023-08-31T15:04:14;7.50;;;4.22;;
25667;SDS011;18003;-33.830;151.202;2023-08-31T15:06:44;10.30;;;4.55;;
25667;SDS011;18003;-33.830;151.202;2023-08-31T15:09:14;7.37;;;4.33;;
25667;SDS011;18003;-33.830;151.202;2023-08-31T15:11:44;7.33;;;3.80;;